Weather History for KCKC - September, 2013

Change the Weather History Date:

Sunday, September 22, 2013

  Actual Average Record
Temperature  
Mean Temperature 39 °F -  
Max Temperature 50 °F 57 °F 73 °F (2017)
Min Temperature 28 °F 39 °F 28 °F (2013)
Degree Days  
Heating Degree Days 26    
Moisture  
Dew Point 33 °F    
Average Humidity 79    
Maximum Humidity 93    
Minimum Humidity 62    
Precipitation  
Precipitation 0.00 in - - ()
Sea Level Pressure  
Sea Level Pressure 30.04 in    
Wind  
Wind Speed 5 mph (East)    
Max Wind Speed 8 mph    
Max Gust Speed -    
Visibility 10 miles    
Events      
Averages and records for this station are not official NWS values.
T = Trace of Precipitation, MM = Missing Value Source: NWS Daily Summary

Daily Weather History Graph

Daily Weather History Graph

Search for Another Location

Airport or City:

Trip Planner

Search our weather history database for the weather conditions in past years. The results will help you decide how hot, cold, wet, or windy it might be!

Date:

Astronomy

Sep. 22, 2013 Rise Set
Actual Time 6:48 AM CDT 6:58 PM CDT
Civil Twilight 6:17 AM CDT 7:29 PM CDT
Nautical Twilight 5:41 AM CDT 8:05 PM CDT
Astronomical Twilight 5:03 AM CDT 8:43 PM CDT
Moon 8:30 PM CDT (9/22) 10:26 AM CDT (9/22)
Length of Visible Light 13h 11m
Length of Day
12h 10m
Waning Gibbous, 88% of the Moon is Illuminated
Sep 22
Waning Gibbous
Sep 26
Last Quarter
Oct 4
New
Oct 11
First Quarter
Oct 18
Full

Hourly Weather History & Observations

Time (CDT) Temp. Windchill Dew Point Humidity Pressure Visibility Wind Dir Wind Speed Gust Speed Precip Events Conditions
12:13 AM 30.2 °F 26.7 °F 28.4 °F 93% 30.00 in 10.0 mi North 3.5 mph - N/A   Clear
12:33 AM 32.0 °F 26.4 °F 28.4 °F 87% 30.01 in 10.0 mi North 5.8 mph - N/A   Clear
12:53 AM 30.2 °F 25.4 °F 26.6 °F 86% 30.01 in 10.0 mi North 4.6 mph - N/A   Clear
1:13 AM 32.0 °F 28.7 °F 28.4 °F 87% 30.02 in 10.0 mi North 3.5 mph - N/A   Clear
1:34 AM 30.2 °F 25.4 °F 26.6 °F 86% 30.02 in 10.0 mi North 4.6 mph - N/A   Clear
1:53 AM 32.0 °F 27.5 °F 28.4 °F 87% 30.02 in 10.0 mi North 4.6 mph - N/A   Clear
2:13 AM 30.2 °F 25.4 °F 28.4 °F 93% 30.02 in 10.0 mi NNE 4.6 mph - N/A   Clear
2:33 AM 30.2 °F 25.4 °F 28.4 °F 93% 30.02 in 10.0 mi NNE 4.6 mph - N/A   Clear
2:53 AM 32.0 °F 27.5 °F 28.4 °F 87% 30.02 in 10.0 mi NNE 4.6 mph - N/A   Clear
3:14 AM 30.2 °F 26.7 °F 28.4 °F 93% 30.02 in 10.0 mi NNE 3.5 mph - N/A   Clear
3:34 AM 30.2 °F 25.4 °F 28.4 °F 93% 30.02 in 10.0 mi NNE 4.6 mph - N/A   Clear
3:53 AM 30.2 °F 25.4 °F 26.6 °F 86% 30.02 in 10.0 mi North 4.6 mph - N/A   Clear
4:13 AM 30.2 °F 25.4 °F 26.6 °F 86% 30.03 in 10.0 mi North 4.6 mph - N/A   Clear
4:33 AM 30.2 °F 25.4 °F 26.6 °F 86% 30.03 in 10.0 mi North 4.6 mph - N/A   Clear
4:54 AM 30.2 °F 25.4 °F 26.6 °F 86% 30.04 in 10.0 mi North 4.6 mph - N/A   Clear
5:13 AM 30.2 °F 25.4 °F 26.6 °F 86% 30.04 in 10.0 mi North 4.6 mph - N/A   Clear
5:33 AM 30.2 °F 25.4 °F 26.6 °F 86% 30.04 in 10.0 mi NNE 4.6 mph - N/A   Clear
5:54 AM 30.2 °F 25.4 °F 26.6 °F 86% 30.04 in 10.0 mi NNE 4.6 mph - N/A   Clear
6:13 AM 30.2 °F 25.4 °F 26.6 °F 86% 30.05 in 10.0 mi North 4.6 mph - N/A   Clear
6:33 AM 30.2 °F 25.4 °F 26.6 °F 86% 30.05 in 10.0 mi North 4.6 mph - N/A   Clear
6:53 AM 28.4 °F 23.3 °F 26.6 °F 93% 30.05 in 10.0 mi NNE 4.6 mph - N/A   Clear
7:13 AM 30.2 °F 26.7 °F 26.6 °F 86% 30.05 in 10.0 mi NNE 3.5 mph - N/A   Clear
7:34 AM 33.8 °F 30.8 °F 28.4 °F 81% 30.06 in 10.0 mi NNE 3.5 mph - N/A   Clear
7:53 AM 33.8 °F 30.8 °F 28.4 °F 81% 30.06 in 10.0 mi NNE 3.5 mph - N/A   Clear
8:14 AM 35.6 °F 32.8 °F 30.2 °F 81% 30.06 in 10.0 mi NE 3.5 mph - N/A   Clear
8:33 AM 39.2 °F 35.9 °F 33.8 °F 81% 30.06 in 10.0 mi ENE 4.6 mph - N/A   Clear
8:53 AM 42.8 °F 40.1 °F 33.8 °F 70% 30.07 in 10.0 mi East 4.6 mph - N/A   Clear
9:14 AM 42.8 °F 41.1 °F 35.6 °F 76% 30.07 in 10.0 mi East 3.5 mph - N/A   Clear
9:33 AM 44.6 °F 41.4 °F 35.6 °F 71% 30.07 in 10.0 mi East 5.8 mph - N/A   Scattered Clouds
9:53 AM 44.6 °F 43.1 °F 35.6 °F 71% 30.08 in 10.0 mi ESE 3.5 mph - N/A   Mostly Cloudy
10:14 AM 44.6 °F 41.4 °F 35.6 °F 71% 30.08 in 10.0 mi ESE 5.8 mph - N/A   Overcast
10:33 AM 46.4 °F 42.9 °F 37.4 °F 71% 30.08 in 10.0 mi SE 6.9 mph - N/A   Overcast
10:54 AM 44.6 °F 40.7 °F 37.4 °F 76% 30.08 in 10.0 mi SE 6.9 mph - N/A   Overcast
11:14 AM 44.6 °F 40.7 °F 37.4 °F 76% 30.08 in 10.0 mi ESE 6.9 mph - N/A   Overcast
11:33 AM 46.4 °F 44.3 °F 35.6 °F 66% 30.08 in 10.0 mi ESE 4.6 mph - N/A   Overcast
11:54 AM 46.4 °F 43.5 °F 35.6 °F 66% 30.08 in 10.0 mi SE 5.8 mph - N/A   Overcast
12:14 PM 46.4 °F 44.3 °F 35.6 °F 66% 30.07 in 10.0 mi ESE 4.6 mph - N/A   Overcast
12:33 PM 48.2 °F - 37.4 °F 66% 30.07 in 10.0 mi SSE 6.9 mph - N/A   Mostly Cloudy
12:53 PM 48.2 °F - 35.6 °F 62% 30.07 in 10.0 mi SE 8.1 mph - N/A   Mostly Cloudy
1:13 PM 48.2 °F - 35.6 °F 62% 30.07 in 10.0 mi SE 6.9 mph - N/A   Mostly Cloudy
1:33 PM 48.2 °F - 37.4 °F 66% 30.06 in 10.0 mi ESE 4.6 mph - N/A   Mostly Cloudy
1:53 PM 48.2 °F - 37.4 °F 66% 30.06 in 10.0 mi ESE 5.8 mph - N/A   Mostly Cloudy
2:14 PM 48.2 °F - 35.6 °F 62% 30.06 in 10.0 mi ESE 4.6 mph - N/A   Mostly Cloudy
2:33 PM 48.2 °F - 37.4 °F 66% 30.04 in 10.0 mi East 6.9 mph - N/A   Mostly Cloudy
2:53 PM 48.2 °F - 37.4 °F 66% 30.04 in 10.0 mi East 5.8 mph - N/A   Scattered Clouds
3:13 PM 48.2 °F - 37.4 °F 66% 30.04 in 10.0 mi East 5.8 mph - N/A   Mostly Cloudy
3:34 PM 50.0 °F - 37.4 °F 62% 30.04 in 10.0 mi ESE 5.8 mph - N/A   Mostly Cloudy
3:53 PM 48.2 °F - 37.4 °F 66% 30.04 in 10.0 mi ESE 6.9 mph - N/A   Scattered Clouds
4:13 PM 48.2 °F - 37.4 °F 66% 30.04 in 10.0 mi ESE 6.9 mph - N/A   Scattered Clouds
4:34 PM 46.4 °F 43.5 °F 35.6 °F 66% 30.03 in 10.0 mi SSE 5.8 mph - N/A   Scattered Clouds
4:53 PM 48.2 °F - 37.4 °F 66% 30.03 in 10.0 mi SE 5.8 mph - N/A   Clear
5:13 PM 46.4 °F 42.9 °F 35.6 °F 66% 30.03 in 10.0 mi East 6.9 mph - N/A   Clear
5:34 PM 46.4 °F 43.5 °F 35.6 °F 66% 30.02 in 10.0 mi ESE 5.8 mph - N/A   Clear
5:54 PM 44.6 °F 40.7 °F 35.6 °F 71% 30.02 in 10.0 mi East 6.9 mph - N/A   Clear
6:13 PM 44.6 °F 41.4 °F 37.4 °F 76% 30.02 in 10.0 mi ESE 5.8 mph - N/A   Clear
6:33 PM 42.8 °F 40.1 °F 37.4 °F 81% 30.01 in 10.0 mi East 4.6 mph - N/A   Clear
6:54 PM 42.8 °F 39.3 °F 35.6 °F 76% 30.01 in 10.0 mi East 5.8 mph - N/A   Clear
7:14 PM 41.0 °F 36.4 °F 35.6 °F 81% 30.01 in 10.0 mi East 6.9 mph - N/A   Clear
7:33 PM 39.2 °F 35.9 °F 35.6 °F 87% 30.01 in 10.0 mi East 4.6 mph - N/A   Clear
7:53 PM 39.2 °F 35.0 °F 35.6 °F 87% 30.02 in 10.0 mi East 5.8 mph - N/A   Clear
8:13 PM 39.2 °F 35.0 °F 35.6 °F 87% 30.02 in 10.0 mi East 5.8 mph - N/A   Clear
8:33 PM 39.2 °F 34.2 °F 35.6 °F 87% 30.02 in 10.0 mi East 6.9 mph - N/A   Clear
8:54 PM 39.2 °F 33.6 °F 35.6 °F 87% 30.02 in 10.0 mi East 8.1 mph - N/A   Clear
9:14 PM 39.2 °F 34.2 °F 35.6 °F 87% 30.02 in 10.0 mi East 6.9 mph - N/A   Clear
9:33 PM 39.2 °F 35.0 °F 35.6 °F 87% 30.02 in 10.0 mi ESE 5.8 mph - N/A   Clear
9:53 PM 41.0 °F 38.0 °F 37.4 °F 87% 30.02 in 10.0 mi East 4.6 mph - N/A   Scattered Clouds
10:13 PM 42.8 °F 40.1 °F 39.2 °F 87% 30.02 in 10.0 mi East 4.6 mph - N/A   Mostly Cloudy
10:33 PM 42.8 °F 38.6 °F 39.2 °F 87% 30.02 in 10.0 mi ESE 6.9 mph - N/A   Overcast
10:54 PM 42.8 °F 39.3 °F 39.2 °F 87% 30.02 in 10.0 mi ESE 5.8 mph - N/A   Mostly Cloudy
11:13 PM 42.8 °F 38.6 °F 39.2 °F 87% 30.02 in 10.0 mi ESE 6.9 mph - N/A   Mostly Cloudy
11:33 PM 42.8 °F 38.6 °F 39.2 °F 87% 30.02 in 10.0 mi ESE 6.9 mph - N/A   Mostly Cloudy
11:54 PM 44.6 °F 42.2 °F 41.0 °F 87% 30.01 in 10.0 mi ESE 4.6 mph - N/A   Mostly Cloudy